Time;durP1;ratioP1;P1;durP2;ratioP2;P2;SDS_P1;SDS_P2;PMS_P1;PMS_P2;Temp;Humidity;BMP_temperature;BMP_pressure;BME280_temperature;BME280_humidity;BME280_pressure;Samples;Min_cycle;Max_cycle;Signal;HPM_P1;HPM_P2
2023/07/20 00:00:35;;;;;;;6.70;4.80;;;18.80;1.00;;;;;;4964634;28;20510;-84
2023/07/20 00:03:22;;;;;;;11.10;3.90;;;18.80;1.00;;;;;;4994303;28;20211;-83
2023/07/20 00:05:49;;;;;;;7.20;4.20;;;18.80;1.00;;;;;;4973043;28;20194;-83
2023/07/20 00:08:15;;;;;;;5.70;4.40;;;18.80;1.00;;;;;;4979731;28;20442;-83
2023/07/20 00:10:47;;;;;;;8.97;4.33;;;18.80;1.00;;;;;;4980615;28;20436;-83
2023/07/20 00:13:12;;;;;;;5.20;3.83;;;18.70;1.00;;;;;;4983832;28;20465;-84
2023/07/20 00:15:41;;;;;;;7.10;4.13;;;18.70;1.00;;;;;;4976378;28;20979;-84
2023/07/20 00:18:07;;;;;;;4.60;3.70;;;18.70;1.00;;;;;;4963715;28;20441;-83
2023/07/20 00:20:33;;;;;;;5.70;3.80;;;18.70;1.00;;;;;;4965022;28;20445;-83
2023/07/20 00:22:58;;;;;;;6.13;4.70;;;18.70;1.00;;;;;;4968493;28;20503;-84
2023/07/20 00:25:24;;;;;;;7.70;4.43;;;18.70;1.00;;;;;;4971868;28;20194;-84
2023/07/20 00:27:53;;;;;;;5.43;4.33;;;18.70;1.00;;;;;;4995055;28;20223;-83
2023/07/20 00:30:19;;;;;;;5.10;3.80;;;18.60;1.00;;;;;;4972710;28;20550;-83
2023/07/20 00:32:45;;;;;;;4.87;3.80;;;18.50;22.40;;;;;;4960926;28;21000;-84
2023/07/20 00:35:11;;;;;;;4.00;3.13;;;18.40;99.90;;;;;;4986548;28;20181;-84
2023/07/20 00:37:38;;;;;;;10.93;3.53;;;18.40;99.90;;;;;;4970945;28;20194;-83
2023/07/20 00:40:05;;;;;;;4.77;3.03;;;18.30;1.00;;;;;;4960753;28;20451;-83
2023/07/20 00:42:33;;;;;;;4.43;3.47;;;18.30;1.00;;;;;;4982672;28;20633;-84
2023/07/20 00:45:05;;;;;;;3.53;3.00;;;18.30;1.00;;;;;;4962019;28;20435;-83
2023/07/20 00:47:32;;;;;;;9.53;3.43;;;18.30;1.00;;;;;;4976274;28;20479;-84
2023/07/20 00:49:58;;;;;;;6.23;3.10;;;18.30;1.00;;;;;;4977395;28;20437;-83
2023/07/20 00:52:25;;;;;;;5.37;3.07;;;18.30;1.00;;;;;;4975023;28;20480;-84
2023/07/20 00:54:52;;;;;;;6.83;3.27;;;18.40;1.00;;;;;;4968964;28;20436;-84
2023/07/20 00:57:18;;;;;;;4.07;2.80;;;18.30;1.00;;;;;;4969053;28;20620;-83
2023/07/20 00:59:44;;;;;;;3.80;2.80;;;18.30;1.00;;;;;;4991324;28;20515;-84
2023/07/20 01:02:10;;;;;;;4.60;3.40;;;18.40;1.00;;;;;;4964684;28;20532;-84
2023/07/20 01:04:37;;;;;;;3.70;2.83;;;18.40;1.00;;;;;;4969756;28;20469;-83
2023/07/20 01:07:30;;;;;;;3.60;2.83;;;18.40;1.00;;;;;;4969747;28;20237;-83
2023/07/20 01:10:29;;;;;;;3.80;2.73;;;18.40;1.00;;;;;;4978411;28;20460;-83
2023/07/20 01:12:55;;;;;;;4.50;4.00;;;18.30;41.40;;;;;;4971401;28;20466;-83
2023/07/20 01:15:21;;;;;;;5.27;3.10;;;18.10;99.90;;;;;;4982622;28;20450;-84
2023/07/20 01:17:47;;;;;;;6.20;3.93;;;18.00;1.00;;;;;;4990123;28;20451;-83
2023/07/20 01:20:15;;;;;;;7.63;4.93;;;17.90;1.00;;;;;;4990087;28;20196;-84
2023/07/20 01:23:05;;;;;;;5.30;4.50;;;17.90;1.00;;;;;;4969629;28;20490;-83
2023/07/20 01:25:53;;;;;;;11.00;4.93;;;17.80;99.90;;;;;;4974415;28;20435;-83
2023/07/20 01:28:30;;;;;;;5.70;3.67;;;17.70;1.00;;;;;;4973220;28;20448;-83
2023/07/20 01:31:23;;;;;;;5.90;4.93;;;17.70;1.00;;;;;;4967377;28;20438;-83
2023/07/20 01:34:00;;;;;;;6.70;4.10;;;17.60;1.00;;;;;;4960498;28;20975;-84
2023/07/20 01:36:47;;;;;;;5.73;4.40;;;17.60;1.00;;;;;;4959559;28;20445;-85
2023/07/20 01:39:14;;;;;;;5.83;4.20;;;17.60;99.90;;;;;;4963615;28;20471;-83
2023/07/20 01:41:40;;;;;;;6.00;4.80;;;17.60;99.90;;;;;;4969262;28;20443;-84
2023/07/20 01:44:05;;;;;;;5.90;4.60;;;17.60;99.90;;;;;;4990075;28;20465;-84
2023/07/20 01:46:31;;;;;;;5.03;3.93;;;17.60;1.00;;;;;;4978394;28;20682;-84
2023/07/20 01:48:58;;;;;;;8.97;4.77;;;17.50;2.60;;;;;;4982838;28;20180;-84
2023/07/20 01:51:24;;;;;;;5.50;4.43;;;17.50;99.90;;;;;;4992403;28;20343;-85
2023/07/20 01:53:49;;;;;;;6.53;4.30;;;17.50;99.90;;;;;;4973774;28;20452;-85
2023/07/20 01:56:15;;;;;;;7.87;5.00;;;17.50;1.00;;;;;;4980951;28;20818;-84
2023/07/20 01:58:40;;;;;;;5.90;4.77;;;17.50;1.00;;;;;;4989078;28;20188;-84
2023/07/20 02:01:06;;;;;;;5.60;4.97;;;17.50;1.00;;;;;;4986958;28;20193;-85
2023/07/20 02:03:32;;;;;;;8.17;4.80;;;17.50;1.00;;;;;;4960334;28;20769;-84
2023/07/20 02:05:57;;;;;;;8.07;4.87;;;17.50;1.00;;;;;;4975428;28;20687;-84
2023/07/20 02:08:26;;;;;;;7.40;5.07;;;17.50;1.00;;;;;;4984566;28;20784;-84
2023/07/20 02:10:52;;;;;;;7.90;4.60;;;17.50;1.00;;;;;;4986106;28;20184;-84
2023/07/20 02:13:17;;;;;;;10.63;5.27;;;17.50;1.00;;;;;;4965499;28;20579;-84
2023/07/20 02:15:43;;;;;;;9.67;5.57;;;17.50;1.00;;;;;;4974292;28;20424;-83
2023/07/20 02:18:09;;;;;;;9.83;4.70;;;17.50;1.00;;;;;;4994262;28;20287;-84
2023/07/20 02:20:35;;;;;;;7.47;4.97;;;17.50;1.00;;;;;;4989406;28;20554;-83
2023/07/20 02:23:01;;;;;;;7.03;4.37;;;17.50;1.00;;;;;;4964281;28;20197;-84
2023/07/20 02:25:27;;;;;;;8.90;4.93;;;17.50;1.00;;;;;;4967118;28;20439;-84
2023/07/20 02:27:52;;;;;;;6.30;4.50;;;17.40;1.00;;;;;;4963708;28;20236;-84
2023/07/20 02:30:18;;;;;;;6.57;4.00;;;17.40;1.00;;;;;;4987375;28;20187;-85
2023/07/20 02:32:48;;;;;;;7.60;5.20;;;17.40;1.00;;;;;;4964373;28;20671;-84
2023/07/20 02:35:14;;;;;;;8.73;5.10;;;17.40;1.00;;;;;;4965225;28;20869;-85
2023/07/20 02:37:40;;;;;;;10.83;4.47;;;17.30;1.00;;;;;;4968591;28;20806;-84
2023/07/20 02:40:07;;;;;;;8.37;4.07;;;17.30;1.00;;;;;;4993134;28;20441;-83
2023/07/20 02:42:36;;;;;;;8.50;4.20;;;17.20;1.00;;;;;;4968964;28;20181;-85
2023/07/20 02:45:04;;;;;;;5.53;4.00;;;17.20;1.00;;;;;;4983911;28;20440;-85
2023/07/20 02:47:29;;;;;;;8.00;4.60;;;17.20;1.00;;;;;;4978250;28;20691;-85
2023/07/20 02:49:55;;;;;;;10.20;6.00;;;17.20;1.00;;;;;;4990079;28;20425;-85
2023/07/20 02:52:21;;;;;;;10.83;4.77;;;17.20;1.00;;;;;;4980695;28;20181;-84
2023/07/20 02:54:46;;;;;;;8.00;4.70;;;17.10;1.00;;;;;;4986728;28;20498;-84
2023/07/20 02:57:12;;;;;;;8.83;4.23;;;17.10;1.00;;;;;;4969814;28;20188;-86
2023/07/20 02:59:41;;;;;;;5.23;4.40;;;17.10;1.00;;;;;;4989997;28;20441;-85
2023/07/20 03:02:09;;;;;;;12.53;5.00;;;17.00;1.00;;;;;;4977145;28;20185;-85
2023/07/20 03:04:37;;;;;;;11.17;5.03;;;17.00;1.00;;;;;;4966042;28;20468;-85
2023/07/20 03:07:06;;;;;;;8.47;4.20;;;17.00;1.00;;;;;;4966463;28;20468;-85
2023/07/20 03:09:35;;;;;;;11.30;4.63;;;17.00;46.70;;;;;;4968908;28;20443;-84
2023/07/20 03:12:04;;;;;;;9.00;4.80;;;16.90;47.10;;;;;;4969956;28;20458;-85
2023/07/20 03:14:30;;;;;;;8.77;4.40;;;17.00;92.80;;;;;;4959801;28;20460;-84
2023/07/20 03:16:55;;;;;;;6.20;4.00;;;17.00;83.30;;;;;;4985266;28;20450;-85
2023/07/20 03:19:24;;;;;;;7.63;4.90;;;17.00;28.40;;;;;;4970118;28;20192;-85
2023/07/20 03:21:50;;;;;;;9.40;4.50;;;17.00;1.00;;;;;;4967404;28;20192;-85
2023/07/20 03:24:16;;;;;;;12.20;4.90;;;17.00;1.00;;;;;;4991135;28;21050;-85
2023/07/20 03:26:41;;;;;;;7.03;4.47;;;17.00;26.40;;;;;;4981329;28;20210;-84
2023/07/20 03:29:10;;;;;;;8.70;4.17;;;17.10;27.40;;;;;;4985512;28;20526;-84
2023/07/20 03:31:36;;;;;;;5.37;3.90;;;17.10;22.90;;;;;;4955599;28;20209;-85
2023/07/20 03:34:05;;;;;;;7.83;4.70;;;17.10;1.00;;;;;;4972275;28;20456;-85
2023/07/20 03:36:31;;;;;;;11.40;4.77;;;17.10;1.00;;;;;;4977397;28;20681;-85
2023/07/20 03:38:57;;;;;;;5.90;4.50;;;17.10;1.00;;;;;;4963833;28;20449;-85
2023/07/20 03:41:22;;;;;;;9.80;5.07;;;17.10;1.00;;;;;;4966640;28;20444;-84
2023/07/20 03:43:48;;;;;;;11.00;4.93;;;17.00;1.00;;;;;;4987903;28;20211;-84
2023/07/20 03:46:14;;;;;;;10.37;5.07;;;17.00;1.20;;;;;;4968009;28;20350;-84
2023/07/20 03:48:39;;;;;;;8.13;4.87;;;17.00;33.20;;;;;;4958535;28;20958;-85
2023/07/20 03:51:05;;;;;;;12.13;4.90;;;17.10;9.30;;;;;;4963951;28;20237;-86
2023/07/20 03:53:31;;;;;;;7.10;5.00;;;17.10;17.20;;;;;;4963018;28;20236;-85
2023/07/20 03:55:57;;;;;;;10.73;5.57;;;17.10;15.70;;;;;;4970038;28;20212;-85
2023/07/20 03:58:23;;;;;;;7.13;4.30;;;17.10;23.10;;;;;;4976672;28;20513;-84
2023/07/20 04:00:50;;;;;;;9.70;5.43;;;17.10;7.60;;;;;;4966905;28;20247;-84
2023/07/20 04:03:17;;;;;;;10.83;4.23;;;17.20;1.00;;;;;;4962356;28;20236;-84
2023/07/20 04:05:43;;;;;;;11.40;5.30;;;17.20;1.00;;;;;;4979316;28;20434;-85
2023/07/20 04:08:11;;;;;;;10.67;6.10;;;17.20;1.00;;;;;;4972593;28;20517;-85
2023/07/20 04:10:37;;;;;;;10.53;5.30;;;17.20;1.00;;;;;;4986434;28;20445;-85
2023/07/20 04:13:02;;;;;;;12.47;6.40;;;17.20;1.00;;;;;;4963212;28;20492;-85
2023/07/20 04:15:28;;;;;;;14.43;6.33;;;17.30;1.00;;;;;;4985619;28;20975;-85
2023/07/20 04:17:56;;;;;;;8.77;5.30;;;17.30;1.00;;;;;;4959838;28;20589;-85
2023/07/20 04:20:22;;;;;;;11.47;5.70;;;17.30;1.00;;;;;;4975630;28;20703;-84
2023/07/20 04:22:47;;;;;;;11.70;5.87;;;17.30;1.00;;;;;;4974106;28;20518;-84
2023/07/20 04:25:13;;;;;;;13.40;6.27;;;17.30;1.00;;;;;;4964851;28;20473;-84
2023/07/20 04:27:39;;;;;;;9.10;6.10;;;17.40;1.00;;;;;;4967973;28;20676;-85
2023/07/20 04:30:10;;;;;;;9.20;5.67;;;17.50;1.00;;;;;;4972269;28;20545;-84
2023/07/20 04:32:36;;;;;;;11.33;5.80;;;17.50;99.90;;;;;;4977513;28;20784;-85
2023/07/20 04:35:05;;;;;;;13.40;6.50;;;17.60;99.90;;;;;;4959425;28;20463;-86
2023/07/20 04:37:34;;;;;;;10.23;5.20;;;17.70;99.90;;;;;;4954778;28;20563;-86
2023/07/20 04:40:00;;;;;;;16.30;6.40;;;17.80;1.00;;;;;;4961957;28;20445;-85
2023/07/20 04:42:25;;;;;;;9.20;6.00;;;17.90;1.00;;;;;;4992415;28;20438;-85
2023/07/20 04:44:51;;;;;;;11.73;7.20;;;17.90;99.90;;;;;;4979838;28;20488;-85
2023/07/20 04:47:17;;;;;;;10.03;7.53;;;18.00;99.90;;;;;;4976556;28;20229;-85
2023/07/20 04:49:42;;;;;;;16.27;7.53;;;18.10;99.90;;;;;;4962845;28;20649;-85
2023/07/20 04:52:08;;;;;;;13.20;6.90;;;18.10;1.00;;;;;;4962830;28;20590;-84
2023/07/20 04:54:33;;;;;;;9.30;7.50;;;18.30;99.90;;;;;;4987838;28;20210;-85
2023/07/20 04:56:59;;;;;;;12.70;7.03;;;18.20;99.90;;;;;;4966654;28;20575;-85
2023/07/20 04:59:25;;;;;;;14.47;7.73;;;18.20;1.00;;;;;;4965027;28;20198;-87
2023/07/20 05:01:50;;;;;;;14.17;6.90;;;18.30;99.90;;;;;;4954753;28;20666;-85
2023/07/20 05:04:18;;;;;;;14.20;8.93;;;18.50;1.00;;;;;;4984025;28;20212;-85
2023/07/20 05:06:44;;;;;;;10.83;7.90;;;18.60;99.90;;;;;;4996156;28;20626;-86
2023/07/20 05:09:10;;;;;;;12.57;10.00;;;18.80;1.00;;;;;;4964869;28;20439;-85
2023/07/20 05:11:35;;;;;;;16.30;10.50;;;18.70;99.90;;;;;;4964908;28;20645;-85
2023/07/20 05:14:01;;;;;;;18.33;10.07;;;18.80;99.90;;;;;;4967085;28;20203;-85
2023/07/20 05:16:26;;;;;;;14.40;10.60;;;18.90;99.90;;;;;;4974488;28;20195;-85
2023/07/20 05:18:52;;;;;;;14.43;11.57;;;19.10;1.00;;;;;;4979664;28;20197;-85
2023/07/20 05:21:18;;;;;;;14.70;11.50;;;19.10;99.90;;;;;;4967375;28;20196;-85
2023/07/20 05:23:44;;;;;;;17.23;11.70;;;19.10;99.90;;;;;;4965459;28;20204;-84
2023/07/20 05:26:09;;;;;;;21.87;12.00;;;18.90;99.90;;;;;;4965047;28;20265;-84
2023/07/20 05:28:37;;;;;;;17.80;12.87;;;18.80;1.00;;;;;;4952099;28;20457;-85
2023/07/20 05:31:03;;;;;;;15.77;11.90;;;18.70;99.90;;;;;;4972803;28;20724;-85
2023/07/20 05:33:29;;;;;;;17.13;12.00;;;18.70;99.90;;;;;;4972551;28;20445;-85
2023/07/20 05:35:54;;;;;;;18.03;13.77;;;18.80;99.90;;;;;;4953813;28;20831;-84
2023/07/20 05:38:20;;;;;;;15.23;12.73;;;18.90;99.90;;;;;;4983770;28;20194;-85
2023/07/20 05:40:48;;;;;;;26.27;12.80;;;19.00;1.00;;;;;;4954279;28;20555;-85
2023/07/20 05:43:14;;;;;;;13.53;12.13;;;19.20;99.90;;;;;;4962944;28;20267;-85
2023/07/20 05:45:43;;;;;;;14.77;11.80;;;19.30;99.90;;;;;;4991002;28;20434;-84
2023/07/20 05:48:13;;;;;;;15.07;11.77;;;19.50;92.30;;;;;;4981105;28;20216;-84
2023/07/20 05:50:44;;;;;;;20.03;11.90;;;19.80;99.90;;;;;;4981599;28;20427;-86
2023/07/20 05:53:09;;;;;;;13.53;11.27;;;20.30;1.00;;;;;;4959714;28;20449;-86
2023/07/20 05:55:35;;;;;;;14.23;11.30;;;20.60;99.90;;;;;;4968260;28;20428;-85
2023/07/20 05:58:01;;;;;;;13.37;10.30;;;21.20;99.90;;;;;;4984918;28;20562;-86
2023/07/20 06:00:26;;;;;;;14.17;11.33;;;21.80;1.00;;;;;;4953747;28;20187;-84
2023/07/20 06:02:54;;;;;;;14.37;11.57;;;22.00;1.00;;;;;;4952536;28;20436;-87
2023/07/20 06:05:21;;;;;;;15.53;12.00;;;22.00;1.00;;;;;;4950458;28;20246;-85
2023/07/20 06:07:46;;;;;;;16.67;11.97;;;21.70;1.00;;;;;;4982951;28;20502;-84
2023/07/20 06:10:12;;;;;;;15.83;12.20;;;21.60;1.00;;;;;;4981428;28;20434;-85
2023/07/20 06:12:37;;;;;;;12.63;11.33;;;21.70;1.00;;;;;;4984300;28;20396;-84
2023/07/20 06:15:05;;;;;;;12.13;9.70;;;23.10;1.00;;;;;;4976710;28;20525;-84
2023/07/20 06:17:31;;;;;;;12.70;8.97;;;26.10;99.90;;;;;;4977865;28;20195;-84
2023/07/20 06:19:56;;;;;;;10.30;9.10;;;28.30;99.90;;;;;;4962748;28;21120;-84
2023/07/20 06:22:25;;;;;;;12.00;9.33;;;28.90;99.90;;;;;;4963127;28;20199;-84
2023/07/20 06:24:50;;;;;;;11.43;9.90;;;27.50;99.90;;;;;;4962839;28;20194;-84
2023/07/20 06:27:16;;;;;;;16.93;10.80;;;26.10;99.90;;;;;;4963095;28;20467;-84
2023/07/20 06:29:53;;;;;;;12.13;10.00;;;25.30;99.90;;;;;;4964477;28;20724;-84
2023/07/20 06:32:18;;;;;;;12.37;10.57;;;24.70;99.90;;;;;;4960829;28;20230;-83
2023/07/20 06:34:44;;;;;;;13.50;11.10;;;23.70;99.90;;;;;;4973118;28;20451;-84
2023/07/20 06:37:11;;;;;;;17.33;11.47;;;23.00;99.90;;;;;;4970858;28;20197;-83
2023/07/20 06:39:42;;;;;;;11.50;10.30;;;22.50;99.90;;;;;;4953718;28;20190;-84
2023/07/20 06:42:11;;;;;;;11.03;9.80;;;24.40;99.90;;;;;;4955036;28;20435;-84
2023/07/20 06:45:02;;;;;;;13.00;10.63;;;25.10;99.90;;;;;;4958152;28;20463;-83
2023/07/20 06:47:28;;;;;;;10.40;9.37;;;26.20;99.90;;;;;;4977701;28;20964;-84
2023/07/20 06:50:01;;;;;;;9.87;8.80;;;25.60;99.90;;;;;;4951136;28;20445;-83
2023/07/20 06:52:30;;;;;;;12.43;9.77;;;25.10;99.90;;;;;;4966881;28;20986;-83
2023/07/20 06:54:57;;;;;;;11.70;9.50;;;24.60;99.90;;;;;;4961662;28;20483;-84
2023/07/20 06:57:36;;;;;;;8.20;7.23;;;26.20;99.90;;;;;;4956139;28;20452;-84
2023/07/20 07:00:01;;;;;;;8.73;6.70;;;32.40;99.90;;;;;;4960053;28;20434;-85
2023/07/20 07:02:27;;;;;;;6.43;5.83;;;37.60;99.90;;;;;;4970110;28;20514;-84
2023/07/20 07:04:52;;;;;;;6.90;5.13;;;41.30;99.90;;;;;;4956102;28;20196;-85
2023/07/20 07:07:18;;;;;;;6.20;4.03;;;44.10;99.90;;;;;;4970678;28;20187;-85
2023/07/20 07:09:43;;;;;;;4.13;3.70;;;46.70;99.90;;;;;;4977493;28;20214;-85
2023/07/20 07:12:09;;;;;;;4.90;4.50;;;46.20;99.90;;;;;;4961264;28;20212;-85
2023/07/20 07:14:35;;;;;;;5.40;4.10;;;45.50;99.90;;;;;;4973191;28;20216;-85
2023/07/20 07:17:00;;;;;;;4.80;4.30;;;45.50;99.90;;;;;;4949466;28;20208;-84
2023/07/20 07:19:26;;;;;;;5.33;4.83;;;42.00;99.90;;;;;;4973751;28;20195;-85
2023/07/20 07:21:52;;;;;;;6.17;5.20;;;39.10;99.90;;;;;;4948229;28;20252;-85
2023/07/20 07:24:17;;;;;;;11.10;6.93;;;36.60;99.90;;;;;;4971649;28;20224;-84
2023/07/20 07:26:44;;;;;;;10.03;7.63;;;40.00;99.90;;;;;;4960201;28;20212;-85
2023/07/20 07:29:09;;;;;;;8.13;7.33;;;40.20;99.90;;;;;;4951555;28;20216;-85
2023/07/20 07:31:38;;;;;;;8.60;7.77;;;37.00;99.90;;;;;;4970511;28;20466;-85
2023/07/20 07:34:04;;;;;;;9.07;7.60;;;34.10;99.90;;;;;;4966510;28;20216;-85
2023/07/20 07:36:31;;;;;;;9.30;7.67;;;31.80;99.90;;;;;;4944817;28;20478;-84
2023/07/20 07:38:57;;;;;;;8.67;7.87;;;30.10;99.90;;;;;;4977884;28;20470;-85
2023/07/20 07:41:22;;;;;;;9.00;8.07;;;28.70;99.90;;;;;;4971609;28;20444;-84
2023/07/20 07:43:53;;;;;;;10.70;6.87;;;34.20;99.90;;;;;;4954115;28;20304;-85
2023/07/20 07:46:19;;;;;;;4.30;3.73;;;39.20;99.90;;;;;;4957978;28;20202;-85
2023/07/20 07:48:50;;;;;;;4.67;4.20;;;43.10;99.90;;;;;;4953946;28;20439;-85
2023/07/20 07:51:16;;;;;;;6.20;4.10;;;45.40;12.60;;;;;;4957908;28;20567;-85
2023/07/20 07:54:07;;;;;;;5.30;4.80;;;46.50;9.10;;;;;;4950870;28;20443;-85
2023/07/20 07:56:32;;;;;;;5.70;5.10;;;45.70;1.20;;;;;;4947792;28;20200;-86
2023/07/20 07:59:02;;;;;;;6.23;5.70;;;47.50;1.00;;;;;;4951340;28;20432;-86
2023/07/20 08:01:28;;;;;;;7.20;6.57;;;49.30;1.00;;;;;;4949568;28;20274;-87
2023/07/20 08:03:54;;;;;;;7.03;6.53;;;49.30;1.00;;;;;;4953906;28;20302;-84
2023/07/20 08:06:19;;;;;;;6.33;5.80;;;47.80;1.00;;;;;;4952132;28;20211;-85
2023/07/20 08:08:45;;;;;;;6.83;6.17;;;48.50;1.00;;;;;;4963084;28;20709;-85
2023/07/20 08:11:10;;;;;;;7.17;6.50;;;46.30;1.00;;;;;;4948523;28;20684;-85
2023/07/20 08:13:36;;;;;;;6.20;5.70;;;45.20;1.00;;;;;;4944901;28;20707;-84
2023/07/20 08:16:07;;;;;;;4.07;3.77;;;42.40;1.00;;;;;;4949385;28;20666;-84
2023/07/20 08:18:38;;;;;;;3.73;3.43;;;40.30;1.00;;;;;;4966256;28;20447;-86
2023/07/20 08:21:04;;;;;;;5.50;3.07;;;42.80;1.00;;;;;;4956877;28;20451;-85
2023/07/20 08:23:30;;;;;;;4.57;3.50;;;45.20;1.00;;;;;;4953400;28;20467;-84
2023/07/20 08:26:50;;;;;;;3.70;3.40;;;43.40;1.00;;;;;;4970145;28;20192;-84
2023/07/20 08:30:17;;;;;;;4.43;4.03;;;45.50;1.00;;;;;;4968804;28;20215;-86
2023/07/20 08:32:47;;;;;;;4.67;4.20;;;43.70;1.00;;;;;;4953678;28;20466;-84
2023/07/20 08:38:59;;;;;;;4.47;3.30;;;36.70;1.00;;;;;;4923054;29;20947;-84
2023/07/20 08:41:56;;;;;;;3.63;3.13;;;33.90;99.90;;;;;;4952980;28;20436;-84
2023/07/20 08:47:45;;;;;;;2.93;2.63;;;39.60;99.90;;;;;;5426049;23;20511;-85
2023/07/20 08:54:21;;;;;;;3.47;1.87;;;45.40;1.00;;;;;;4963575;28;21003;-85
2023/07/20 09:43:10;;;;;;;;;;;;;;;;;;;;;
2023/07/20 10:25:31;;;;;;;2.30;1.50;;;38.00;1.00;;;;;;3168545;26;20487;-84
2023/07/20 10:29:07;;;;;;;;;;;;;;;;;;;;;
2023/07/20 10:33:02;;;;;;;1.33;1.00;;;40.40;1.00;;;;;;4908956;29;20450;-85
2023/07/20 10:40:09;;;;;;;;;;;;;;;;;;;;;
2023/07/20 10:42:36;;;;;;;2.40;1.33;;;37.40;1.00;;;;;;4974412;28;20434;-84
2023/07/20 10:49:10;;;;;;;1.73;1.00;;;38.10;1.00;;;;;;4902893;29;20501;-85
2023/07/20 10:52:12;;;;;;;1.40;1.20;;;39.60;1.00;;;;;;4947838;29;20457;-84
2023/07/20 10:55:00;;;;;;;2.70;1.20;;;39.80;1.00;;;;;;4913961;29;20453;-83
2023/07/20 10:58:00;;;;;;;1.47;1.27;;;39.00;1.00;;;;;;5031759;23;20989;-84
2023/07/20 11:00:55;;;;;;;2.10;1.00;;;39.00;1.00;;;;;;4946931;29;20476;-84
2023/07/20 11:03:40;;;;;;;3.40;1.40;;;37.80;1.00;;;;;;4954003;29;20524;-85
2023/07/20 11:06:27;;;;;;;1.83;0.97;;;37.60;1.00;;;;;;4961144;28;20511;-85
2023/07/20 11:09:13;;;;;;;1.80;0.80;;;38.20;1.00;;;;;;4974437;28;20924;-85
2023/07/20 11:12:34;;;;;;;1.87;0.90;;;39.00;1.00;;;;;;4964619;28;20443;-85
2023/07/20 11:15:17;;;;;;;3.17;1.07;;;40.00;1.00;;;;;;4955682;28;20515;-84
2023/07/20 11:18:11;;;;;;;2.63;0.97;;;40.20;1.00;;;;;;4966272;28;20460;-86
2023/07/20 11:20:46;;;;;;;2.27;1.00;;;39.90;1.00;;;;;;4972298;28;20428;-87
2023/07/20 11:24:16;;;;;;;;;;;;;;;;;;;;;
2023/07/20 11:45:05;;;;;;;2.27;1.30;;;36.60;1.00;;;;;;4978633;28;20476;-85
2023/07/20 11:48:13;;;;;;;1.57;0.90;;;36.90;1.00;;;;;;4997998;28;20955;-84
2023/07/20 11:58:00;;;;;;;1.47;0.90;;;34.10;1.00;;;;;;5013490;28;20465;-84
2023/07/20 12:07:51;;;;;;;;;;;;;;;;;;;;;
2023/07/20 12:10:59;;;;;;;2.27;1.50;;;36.60;1.00;;;;;;4924622;29;20533;-84
2023/07/20 12:14:09;;;;;;;2.37;1.10;;;35.50;1.00;;;;;;4912804;29;20530;-84
2023/07/20 12:17:23;;;;;;;;;;;;;;;;;;;;;
2023/07/20 12:20:36;;;;;;;1.73;1.10;;;34.60;1.00;;;;;;4876591;29;20540;-85
2023/07/20 12:26:58;;;;;;;2.57;1.10;;;35.30;1.00;;;;;;4954406;29;20494;-84
2023/07/20 12:29:42;;;;;;;2.47;0.80;;;35.00;1.00;;;;;;4943874;28;20445;-83
2023/07/20 12:32:23;;;;;;;1.90;1.00;;;35.30;1.00;;;;;;4983208;28;20439;-84
2023/07/20 12:35:16;;;;;;;2.03;1.13;;;35.00;1.00;;;;;;4962757;28;20466;-84
2023/07/20 12:38:01;;;;;;;;;;;;;;;;;;;;;
2023/07/20 12:44:22;;;;;;;1.70;0.90;;;33.00;1.00;;;;;;5008467;28;20535;-82
2023/07/20 12:46:59;;;;;;;2.00;1.40;;;32.40;1.00;;;;;;4985232;28;20470;-84
2023/07/20 12:49:46;;;;;;;3.40;1.40;;;32.20;1.00;;;;;;4978716;28;20449;-84
2023/07/20 12:52:31;;;;;;;1.80;1.10;;;32.00;1.00;;;;;;4989549;28;20410;-84
2023/07/20 12:55:01;;;;;;;1.47;0.97;;;31.60;1.00;;;;;;4986870;28;20529;-84
2023/07/20 12:57:29;;;;;;;2.50;1.43;;;31.90;1.00;;;;;;4988402;28;20842;-84
2023/07/20 13:00:04;;;;;;;1.90;1.17;;;32.60;1.00;;;;;;4983383;28;20519;-84
2023/07/20 13:03:21;;;;;;;2.80;1.20;;;33.20;1.00;;;;;;4986943;28;20433;-85
2023/07/20 13:06:12;;;;;;;3.47;1.30;;;33.00;1.00;;;;;;4990803;28;20472;-84
2023/07/20 13:09:28;;;;;;;2.43;1.30;;;32.50;1.00;;;;;;4984010;28;20477;-84
2023/07/20 13:12:58;;;;;;;1.80;1.40;;;31.90;1.00;;;;;;4991819;28;20441;-84
2023/07/20 13:16:16;;;;;;;3.10;1.17;;;31.70;1.00;;;;;;4960618;28;20517;-84
2023/07/20 13:18:41;;;;;;;1.50;1.17;;;31.90;1.00;;;;;;5001390;28;20473;-85
2023/07/20 13:21:10;;;;;;;3.40;1.40;;;32.80;1.00;;;;;;5026062;28;20439;-85
2023/07/20 13:23:36;;;;;;;2.57;1.30;;;33.20;1.00;;;;;;5027931;28;20191;-87
2023/07/20 13:26:03;;;;;;;4.13;1.47;;;33.10;1.00;;;;;;4999219;28;20514;-86
2023/07/20 13:28:28;;;;;;;1.83;1.33;;;32.90;1.00;;;;;;5016092;28;20533;-87
2023/07/20 13:30:54;;;;;;;4.63;1.67;;;32.40;1.00;;;;;;5002043;28;20844;-85
2023/07/20 13:33:20;;;;;;;4.13;1.43;;;32.00;1.00;;;;;;5027102;28;20188;-86
2023/07/20 13:35:46;;;;;;;4.37;1.40;;;31.70;1.00;;;;;;5024266;28;20484;-86
2023/07/20 13:38:12;;;;;;;3.40;1.13;;;31.40;1.00;;;;;;5006663;28;20187;-86
2023/07/20 13:40:38;;;;;;;3.17;1.80;;;31.10;1.00;;;;;;5005170;28;20443;-86
2023/07/20 13:43:04;;;;;;;1.67;1.27;;;31.00;1.00;;;;;;5024969;28;20489;-87
2023/07/20 13:45:29;;;;;;;2.20;1.40;;;31.10;1.00;;;;;;5022557;28;20172;-86
2023/07/20 13:47:55;;;;;;;2.50;1.20;;;31.60;1.00;;;;;;5029165;28;20277;-85
2023/07/20 13:50:21;;;;;;;2.20;1.43;;;32.10;1.00;;;;;;5022711;28;20206;-86
2023/07/20 13:52:46;;;;;;;3.40;1.30;;;32.70;1.00;;;;;;5011668;28;20183;-86
2023/07/20 13:55:12;;;;;;;1.60;1.10;;;32.40;1.00;;;;;;5027995;28;20465;-85
2023/07/20 13:57:38;;;;;;;1.63;1.20;;;32.40;1.00;;;;;;5029167;28;20202;-86
2023/07/20 14:00:04;;;;;;;2.07;1.30;;;32.30;1.00;;;;;;5031841;28;20205;-86
2023/07/20 14:02:30;;;;;;;3.03;1.30;;;32.10;1.00;;;;;;5006528;28;20183;-87
2023/07/20 14:04:55;;;;;;;1.67;1.30;;;31.70;1.00;;;;;;5021106;28;20500;-84
2023/07/20 14:07:22;;;;;;;2.37;1.20;;;31.60;1.00;;;;;;5018705;28;20305;-86
2023/07/20 14:09:47;;;;;;;3.40;1.20;;;31.40;1.00;;;;;;4999665;28;20218;-85
2023/07/20 14:12:14;;;;;;;1.50;1.20;;;31.20;1.00;;;;;;5008767;28;20435;-86
2023/07/20 14:14:40;;;;;;;5.77;1.70;;;31.10;1.00;;;;;;5014272;28;20346;-87
2023/07/20 14:17:06;;;;;;;3.83;1.50;;;31.00;1.00;;;;;;5027242;28;20537;-85
2023/07/20 14:19:32;;;;;;;9.80;1.50;;;31.10;1.00;;;;;;5018530;28;20434;-85
2023/07/20 14:21:59;;;;;;;3.97;1.20;;;31.10;1.00;;;;;;5023743;28;20186;-86
2023/07/20 14:24:27;;;;;;;3.27;1.50;;;31.00;1.00;;;;;;5013111;28;20362;-85
2023/07/20 14:26:54;;;;;;;1.53;1.40;;;30.80;1.00;;;;;;5016365;28;20475;-85
2023/07/20 14:29:20;;;;;;;1.60;1.37;;;30.60;1.00;;;;;;5016714;28;20464;-85
2023/07/20 14:31:50;;;;;;;2.90;1.20;;;30.40;1.00;;;;;;4993314;28;20435;-86
2023/07/20 14:34:16;;;;;;;2.63;1.50;;;30.40;1.00;;;;;;5001738;28;20520;-87
2023/07/20 14:36:42;;;;;;;6.60;2.03;;;30.50;1.00;;;;;;4992328;28;20474;-88
2023/07/20 14:39:08;;;;;;;10.67;2.87;;;30.50;1.00;;;;;;4994834;28;20442;-88
2023/07/20 14:41:33;;;;;;;5.87;2.30;;;30.60;1.00;;;;;;5011075;28;20440;-86
2023/07/20 14:44:02;;;;;;;1.80;1.27;;;30.60;1.00;;;;;;4997465;28;20210;-88
2023/07/20 14:46:27;;;;;;;2.70;1.40;;;30.50;1.00;;;;;;5016784;28;20223;-89
2023/07/20 14:48:53;;;;;;;1.53;1.30;;;30.60;1.00;;;;;;4995930;28;20533;-86
2023/07/20 14:51:19;;;;;;;1.70;1.43;;;30.60;1.00;;;;;;5007226;28;20203;-89
2023/07/20 14:53:44;;;;;;;2.03;1.27;;;30.60;1.00;;;;;;5003079;28;20258;-86
2023/07/20 14:56:10;;;;;;;4.50;1.47;;;30.40;1.00;;;;;;5015940;28;20764;-87
2023/07/20 14:58:39;;;;;;;1.70;1.30;;;30.40;1.00;;;;;;5017486;28;20196;-86
2023/07/20 15:01:05;;;;;;;4.80;1.40;;;30.50;1.00;;;;;;4992303;28;20257;-84
2023/07/20 15:03:33;;;;;;;2.90;1.20;;;30.50;1.00;;;;;;4983128;28;21006;-84
2023/07/20 15:06:12;;;;;;;1.73;1.07;;;30.60;1.00;;;;;;5002292;28;20459;-84
2023/07/20 15:08:38;;;;;;;1.50;1.07;;;30.60;1.00;;;;;;4978950;28;20461;-84
2023/07/20 15:11:04;;;;;;;2.07;1.10;;;30.70;1.00;;;;;;4984110;28;20467;-85
2023/07/20 15:13:32;;;;;;;4.87;1.20;;;30.70;1.00;;;;;;4989954;28;20194;-85
2023/07/20 15:15:57;;;;;;;1.63;1.13;;;30.90;1.00;;;;;;4992687;28;20714;-85
2023/07/20 15:18:23;;;;;;;3.50;1.53;;;30.90;1.00;;;;;;4985136;28;20446;-85
2023/07/20 15:20:53;;;;;;;2.23;1.40;;;30.80;1.00;;;;;;4985303;28;20544;-85
2023/07/20 15:23:24;;;;;;;1.37;0.90;;;30.60;1.00;;;;;;4993996;28;20190;-85
2023/07/20 15:25:53;;;;;;;5.23;1.03;;;30.60;1.00;;;;;;4989926;28;20569;-84
2023/07/20 15:28:18;;;;;;;1.70;1.10;;;30.60;1.00;;;;;;4999647;28;20473;-84
2023/07/20 15:30:44;;;;;;;1.40;1.17;;;30.50;1.00;;;;;;4985727;28;20492;-84
2023/07/20 15:33:09;;;;;;;2.63;1.20;;;30.50;1.00;;;;;;4984999;28;20179;-84
2023/07/20 15:35:36;;;;;;;1.83;1.20;;;30.40;1.00;;;;;;5006459;28;20179;-84
2023/07/20 15:38:02;;;;;;;1.40;0.97;;;30.20;1.00;;;;;;4988883;28;20249;-85
2023/07/20 15:40:27;;;;;;;1.60;1.20;;;29.90;1.00;;;;;;5007730;28;20456;-84
2023/07/20 15:42:53;;;;;;;3.57;1.03;;;29.60;1.00;;;;;;4985538;28;20277;-84
2023/07/20 15:45:18;;;;;;;1.70;0.87;;;29.40;1.00;;;;;;4978072;28;20195;-85